»·PEaware :: N182T KSMX-KSBA

N182T :: KSMX-KSBA

FLIGHT INFORMATION

Flight Status: Arrived
Operator: Privately registered:
United States
More flights under this callsign
Pilot: Alec D. (17934)
Aircraft: CESSNA 182 SKYLANE
(C182)
More flights by this aircraft type
Origin: KSMX Santa Maria Pub/Capt Hancock
United States
Destination: KSBA Santa Barbara Mun
United States
More flights between these airports :: More routes between these airports
Route: BUELT4 GVO
File this flight plan on PilotEdge
Remarks:
Altitude:
(Current/Filed)
5,000ft
Speed:
(Current/Filed)
135kts
Departed: 16-Jan-20 06:23 PM
Arrived: 16-Jan-20 06:50 PM
Distance/Time
Traveled:
42nm/0:27
Distance/Time
To Go:
Arrived

Flight Plot

Page will automatically refresh every two minutes.


Map Options




Map Legend


Flown Route
Filed Route
Departure Airport
Arrival Airport
Navaid (VOR, NDB)
Fix

Horizontal Profiles

Position Reports

Time Latitude Longitude Heading Altitude Ground
Speed
16-Jan-20 18:04 34.892799 -120.454349 180 264ft 0kts
16-Jan-20 18:05 34.892799 -120.454349 180 264ft 0kts
16-Jan-20 18:06 34.892799 -120.454349 180 264ft 0kts
16-Jan-20 18:07 34.892799 -120.454349 180 264ft 0kts
16-Jan-20 18:08 34.892799 -120.454349 180 264ft 0kts
16-Jan-20 18:09 34.892797 -120.454349 180 264ft 0kts
16-Jan-20 18:10 34.892787 -120.454349 180 264ft 0kts
16-Jan-20 18:11 34.892778 -120.454349 180 264ft 0kts
16-Jan-20 18:12 34.892769 -120.454349 180 264ft 0kts
16-Jan-20 18:13 34.892760 -120.454349 180 264ft 0kts
16-Jan-20 18:14 34.892751 -120.454349 180 264ft 0kts
16-Jan-20 18:15 34.892742 -120.454349 180 264ft 0kts
16-Jan-20 18:15 34.892732 -120.454349 179 264ft 0kts
16-Jan-20 18:17 34.892720 -120.454349 179 264ft 0kts
16-Jan-20 18:18 34.891873 -120.453632 150 264ft 11kts
16-Jan-20 18:18 34.891693 -120.449046 91 264ft 18kts
16-Jan-20 18:20 34.892254 -120.446446 65 264ft 0kts
16-Jan-20 18:21 34.892261 -120.446429 65 264ft 0kts
16-Jan-20 18:21 34.892264 -120.446420 65 264ft 0kts
16-Jan-20 18:23 34.901368 -120.455963 315 565ft 92kts
16-Jan-20 18:23 34.921891 -120.455590 48 1407ft 107kts
16-Jan-20 18:24 34.909524 -120.434648 200 2239ft 97kts
16-Jan-20 18:25 34.883442 -120.442471 202 3078ft 97kts
16-Jan-20 18:26 34.857653 -120.449551 174 3891ft 103kts
16-Jan-20 18:27 34.830135 -120.436431 157 4617ft 111kts
16-Jan-20 18:28 34.802874 -120.412439 152 5015ft 135kts
16-Jan-20 18:29 34.770319 -120.386615 156 5003ft 139kts
16-Jan-20 18:30 34.737859 -120.360766 156 5012ft 141kts
16-Jan-20 18:31 34.708203 -120.328363 149 4996ft 139kts
16-Jan-20 18:32 34.676922 -120.299258 151 5000ft 143kts
16-Jan-20 18:33 34.645985 -120.267743 136 4981ft 150kts
16-Jan-20 18:34 34.620445 -120.227839 134 4964ft 147kts
16-Jan-20 18:35 34.595828 -120.188759 136 4947ft 141kts
16-Jan-20 18:36 34.571857 -120.152174 137 4954ft 133kts
16-Jan-20 18:37 34.549284 -120.117952 138 4953ft 127kts
16-Jan-20 18:38 34.525110 -120.090818 179 4967ft 111kts
16-Jan-20 18:39 34.494444 -120.090389 187 4954ft 108kts
16-Jan-20 18:40 34.465628 -120.089811 188 4877ft 101kts
16-Jan-20 18:41 34.436177 -120.085336 138 3919ft 121kts
16-Jan-20 18:42 34.424690 -120.046811 103 2943ft 122kts
16-Jan-20 18:43 34.424574 -120.010148 96 2592ft 96kts
16-Jan-20 18:44 34.425215 -119.977797 95 2060ft 90kts
16-Jan-20 18:45 34.425813 -119.945816 94 1563ft 96kts
16-Jan-20 18:46 34.425693 -119.914178 93 1010ft 89kts
16-Jan-20 18:47 34.426785 -119.883932 88 587ft 86kts
16-Jan-20 18:48 34.427426 -119.859825 89 161ft 66kts
16-Jan-20 18:49 34.427724 -119.842793 87 13ft 18kts
16-Jan-20 18:50 34.427188 -119.837656 165 13ft 0kts
16-Jan-20 18:51 34.426452 -119.838108 163 13ft 10kts
16-Jan-20 18:52 34.424050 -119.835958 75 13ft 0kts

Navigation Log

Ident Type
Flight plan parsing failed, navigation log unavailable